createdAt,value
2019-03-27T00:01:48.951Z,30.13
2019-03-27T00:04:19.348Z,26.60
2019-03-27T00:06:49.794Z,28.57
2019-03-27T00:09:20.206Z,25.23
2019-03-27T00:11:50.644Z,27.83
2019-03-27T00:14:20.969Z,26.00
2019-03-27T00:16:51.411Z,21.77
2019-03-27T00:19:22.917Z,20.63
2019-03-27T00:21:53.519Z,17.37
2019-03-27T00:24:23.908Z,18.57
2019-03-27T00:26:54.352Z,18.17
2019-03-27T00:29:24.734Z,17.53
2019-03-27T00:31:55.117Z,16.83
2019-03-27T00:34:25.519Z,17.20
2019-03-27T00:36:55.938Z,16.87
2019-03-27T00:39:26.323Z,18.13
2019-03-27T00:41:56.788Z,19.27
2019-03-27T00:44:31.169Z,19.33
2019-03-27T00:47:01.583Z,23.60
2019-03-27T00:49:31.979Z,28.33
2019-03-27T00:52:02.395Z,32.47
2019-03-27T00:54:32.795Z,31.27
2019-03-27T00:57:03.247Z,32.00
2019-03-27T00:59:33.646Z,33.37
2019-03-27T01:02:04.119Z,33.10
2019-03-27T01:04:34.518Z,30.63
2019-03-27T01:07:04.990Z,28.07
2019-03-27T01:09:35.598Z,27.00
2019-03-27T01:12:06.055Z,29.53
2019-03-27T01:14:36.469Z,27.07
2019-03-27T01:17:06.932Z,24.30
2019-03-27T01:19:38.262Z,23.80
2019-03-27T01:22:09.321Z,23.50
2019-03-27T01:24:39.714Z,26.60
2019-03-27T01:27:10.166Z,25.27
2019-03-27T01:29:40.563Z,25.00
2019-03-27T01:32:11.010Z,26.33
2019-03-27T01:34:41.394Z,28.30
2019-03-27T01:37:11.772Z,27.07
2019-03-27T01:39:42.179Z,25.70
2019-03-27T01:42:12.620Z,26.23
2019-03-27T01:44:43.024Z,27.30
2019-03-27T01:47:13.459Z,26.13
2019-03-27T01:49:43.841Z,27.63
2019-03-27T01:52:14.324Z,27.50
2019-03-27T01:54:44.730Z,27.70
2019-03-27T01:57:15.197Z,27.77
2019-03-27T01:59:45.615Z,29.37
2019-03-27T02:02:16.061Z,27.33
2019-03-27T02:04:46.458Z,28.83
2019-03-27T02:07:16.903Z,28.73
2019-03-27T02:09:47.312Z,29.57
2019-03-27T02:12:17.686Z,27.97
2019-03-27T02:14:48.163Z,30.83
2019-03-27T02:17:18.605Z,31.27
2019-03-27T02:19:50.055Z,30.10
2019-03-27T02:22:20.667Z,31.53
2019-03-27T02:24:51.094Z,35.33
2019-03-27T02:27:21.532Z,32.23
2019-03-27T02:29:51.939Z,29.87
2019-03-27T02:32:22.375Z,32.23
2019-03-27T02:34:52.755Z,30.40
2019-03-27T02:37:23.208Z,30.93
2019-03-27T02:39:53.598Z,30.90
2019-03-27T02:42:24.042Z,31.90
2019-03-27T02:44:54.425Z,28.83
2019-03-27T02:47:24.865Z,26.73
2019-03-27T02:49:55.354Z,27.53
2019-03-27T02:52:25.710Z,26.53
2019-03-27T02:54:56.116Z,26.00
2019-03-27T02:57:26.522Z,25.53
2019-03-27T02:59:56.925Z,27.47
2019-03-27T03:02:27.351Z,27.27
2019-03-27T03:04:57.753Z,29.90
2019-03-27T03:07:28.198Z,30.40
2019-03-27T03:09:58.606Z,32.07
2019-03-27T03:12:29.056Z,30.57
2019-03-27T03:14:59.469Z,29.93
2019-03-27T03:17:29.950Z,28.17
2019-03-27T03:20:01.203Z,31.23
2019-03-27T03:22:31.653Z,30.60
2019-03-27T03:25:02.047Z,36.13
2019-03-27T03:27:32.523Z,46.13
2019-03-27T03:30:02.954Z,49.67
2019-03-27T03:32:33.547Z,55.20
2019-03-27T03:35:04.975Z,60.50
2019-03-27T03:37:35.428Z,53.13
2019-03-27T03:40:06.343Z,51.97
2019-03-27T03:42:37.129Z,49.57
2019-03-27T03:45:08.061Z,48.33
2019-03-27T03:47:38.527Z,50.77
2019-03-27T03:50:10.678Z,41.57
2019-03-27T03:52:45.577Z,39.37
2019-03-27T03:55:13.368Z,42.20
2019-03-27T03:57:46.525Z,36.83
2019-03-27T04:00:16.923Z,34.77
2019-03-27T04:02:48.077Z,33.93
2019-03-27T04:05:21.423Z,33.77
2019-03-27T04:07:51.878Z,34.50
2019-03-27T04:10:22.271Z,36.07
2019-03-27T04:12:52.635Z,35.27
2019-03-27T04:15:23.041Z,36.20
2019-03-27T04:17:53.510Z,35.10
2019-03-27T04:20:23.957Z,32.47
2019-03-27T04:22:54.485Z,33.47
2019-03-27T04:25:24.882Z,35.10
2019-03-27T04:27:56.436Z,35.83
2019-03-27T04:30:26.831Z,32.17
2019-03-27T04:32:57.278Z,31.70
2019-03-27T04:35:27.592Z,32.23
2019-03-27T04:37:57.971Z,32.70
2019-03-27T04:40:28.355Z,32.03
2019-03-27T04:42:58.802Z,33.90
2019-03-27T04:45:29.205Z,32.97
2019-03-27T04:47:59.582Z,32.97
2019-03-27T04:50:29.970Z,34.93
2019-03-27T04:53:00.425Z,36.37
2019-03-27T04:55:30.809Z,36.57
2019-03-27T04:58:01.175Z,38.70
2019-03-27T05:00:31.584Z,39.00
2019-03-27T05:03:02.011Z,39.40
2019-03-27T05:05:33.319Z,41.30
2019-03-27T05:08:03.770Z,41.80
2019-03-27T05:10:34.117Z,41.90
2019-03-27T05:13:07.294Z,39.80
2019-03-27T05:15:37.739Z,44.80
2019-03-27T05:18:08.132Z,44.63
2019-03-27T05:20:39.475Z,49.33
2019-03-27T05:23:10.022Z,52.90
2019-03-27T05:25:40.423Z,53.77
2019-03-27T05:28:10.863Z,54.97
2019-03-27T05:30:41.262Z,52.93
2019-03-27T05:33:11.732Z,53.30
2019-03-27T05:35:42.159Z,50.03
2019-03-27T05:38:12.631Z,48.23
2019-03-27T05:40:43.018Z,41.33
2019-03-27T05:43:13.468Z,41.33
2019-03-27T05:45:43.874Z,40.60
2019-03-27T05:48:14.335Z,41.73
2019-03-27T05:50:44.723Z,40.37
2019-03-27T05:53:15.164Z,41.20
2019-03-27T05:55:45.578Z,42.13
2019-03-27T05:58:16.030Z,47.47
2019-03-27T06:00:46.438Z,49.70
2019-03-27T06:03:16.841Z,46.50
2019-03-27T06:05:47.302Z,43.93
2019-03-27T06:08:17.708Z,39.63
2019-03-27T06:10:48.121Z,38.07
2019-03-27T06:13:18.570Z,37.80
2019-03-27T06:15:48.984Z,37.50
2019-03-27T06:18:19.373Z,36.13
2019-03-27T06:20:50.805Z,29.27
2019-03-27T06:23:21.267Z,29.10
2019-03-27T06:25:51.702Z,30.87
2019-03-27T06:28:22.084Z,31.57
2019-03-27T06:30:52.528Z,39.30
2019-03-27T06:33:23.125Z,34.40
2019-03-27T06:35:53.824Z,30.13
2019-03-27T06:38:24.241Z,21.13
2019-03-27T06:40:54.753Z,14.53
2019-03-27T06:43:25.195Z,18.17
2019-03-27T06:45:58.281Z,9.77
2019-03-27T06:48:27.740Z,15.30
2019-03-27T06:50:58.180Z,15.97
2019-03-27T06:53:28.587Z,14.97
2019-03-27T06:55:59.031Z,5.20
2019-03-27T06:58:29.438Z,5.20
2019-03-27T07:00:59.889Z,5.10
2019-03-27T07:03:30.297Z,4.07
2019-03-27T07:06:00.611Z,3.67
2019-03-27T07:08:30.875Z,3.73
2019-03-27T07:11:01.225Z,5.63
2019-03-27T07:13:31.617Z,3.77
2019-03-27T07:16:02.034Z,4.13
2019-03-27T07:18:39.967Z,3.50
2019-03-27T07:21:07.134Z,3.50
2019-03-27T07:23:37.561Z,3.23
2019-03-27T07:26:07.873Z,3.43
2019-03-27T07:28:38.199Z,3.30
2019-03-27T07:31:08.544Z,3.97
2019-03-27T07:33:38.941Z,3.57
2019-03-27T07:36:09.241Z,4.00
2019-03-27T07:38:39.666Z,4.07
2019-03-27T07:41:11.151Z,3.03
2019-03-27T07:43:41.527Z,3.97
2019-03-27T07:46:11.893Z,4.40
2019-03-27T07:48:53.294Z,3.07
2019-03-27T07:51:14.326Z,3.30
2019-03-27T07:53:45.768Z,3.27
2019-03-27T07:56:16.104Z,3.27
2019-03-27T07:58:46.410Z,3.73
2019-03-27T08:01:16.743Z,3.97
2019-03-27T08:03:48.613Z,3.90
2019-03-27T08:06:20.611Z,3.97
2019-03-27T08:08:51.060Z,3.20
2019-03-27T08:11:21.474Z,3.43
2019-03-27T08:13:51.799Z,3.60
2019-03-27T08:16:22.224Z,4.23
2019-03-27T08:18:52.513Z,3.57
2019-03-27T08:21:23.779Z,5.40
2019-03-27T08:23:54.325Z,6.37
2019-03-27T08:26:24.732Z,4.33
2019-03-27T08:28:55.141Z,4.47
2019-03-27T08:31:25.617Z,4.40
2019-03-27T08:33:55.918Z,3.57
2019-03-27T08:36:26.217Z,3.40
2019-03-27T08:38:57.999Z,3.73
2019-03-27T08:41:29.872Z,4.37
2019-03-27T08:44:00.263Z,4.50
2019-03-27T08:46:30.831Z,3.40
2019-03-27T08:49:05.710Z,3.50
2019-03-27T08:51:38.572Z,3.43
2019-03-27T08:54:12.810Z,2.93
2019-03-27T08:56:43.008Z,4.73
2019-03-27T08:59:13.456Z,3.90
2019-03-27T09:01:43.800Z,4.57
2019-03-27T09:04:14.146Z,5.07
2019-03-27T09:06:47.023Z,4.60
2019-03-27T09:09:17.336Z,4.47
2019-03-27T09:11:49.152Z,5.10
2019-03-27T09:14:19.550Z,5.60
2019-03-27T09:16:49.987Z,4.80
2019-03-27T09:19:34.493Z,5.57
2019-03-27T09:21:55.534Z,5.87
2019-03-27T09:24:27.734Z,5.33
2019-03-27T09:26:59.284Z,5.83
2019-03-27T09:29:29.881Z,5.93
2019-03-27T09:32:00.331Z,6.20
2019-03-27T09:34:34.520Z,6.40
2019-03-27T09:37:04.954Z,5.93
2019-03-27T09:39:38.046Z,6.27
2019-03-27T09:42:08.571Z,7.70
2019-03-27T09:44:40.552Z,7.07
2019-03-27T09:47:12.240Z,6.87
2019-03-27T09:49:49.761Z,5.10
2019-03-27T09:52:17.251Z,5.20
2019-03-27T09:54:47.830Z,7.33
2019-03-27T09:57:18.248Z,4.90
2019-03-27T09:59:48.667Z,5.00
2019-03-27T10:02:21.701Z,5.40
2019-03-27T10:04:55.710Z,6.90
2019-03-27T10:07:24.742Z,4.17
2019-03-27T10:09:55.127Z,4.63
2019-03-27T10:12:25.503Z,6.23
2019-03-27T10:14:57.148Z,5.60
2019-03-27T10:17:27.938Z,5.40
2019-03-27T10:20:03.724Z,5.17
2019-03-27T10:22:33.317Z,6.63
2019-03-27T10:25:05.437Z,5.20
2019-03-27T12:42:48.832Z,20.73
2019-03-27T12:50:05.320Z,22.37
2019-03-27T13:00:15.225Z,15.13
2019-03-27T13:29:34.269Z,12.40
2019-03-27T13:45:14.712Z,13.67
2019-03-27T13:51:24.591Z,13.27
2019-03-27T13:54:12.019Z,13.33
2019-03-27T13:56:43.370Z,13.87
2019-03-27T13:59:18.302Z,14.40
2019-03-27T14:01:58.455Z,12.03
2019-03-27T14:04:34.761Z,14.37
2019-03-27T14:07:09.063Z,11.40
2019-03-27T14:09:41.743Z,13.20
2019-03-27T14:12:13.831Z,12.30
2019-03-27T14:14:50.602Z,13.97
2019-03-27T14:17:18.517Z,15.13
2019-03-27T14:19:52.659Z,17.60
2019-03-27T14:22:35.245Z,21.00
2019-03-27T14:25:09.567Z,21.37
2019-03-27T14:27:45.597Z,24.83
2019-03-27T14:30:36.040Z,27.20
2019-03-27T14:33:06.616Z,32.70
2019-03-27T14:35:39.980Z,34.80
2019-03-27T14:38:13.303Z,34.60
2019-03-27T14:40:50.590Z,42.33
2019-03-27T14:43:27.195Z,39.07
2019-03-27T14:45:58.607Z,34.70
2019-03-27T14:48:29.306Z,36.87
2019-03-27T14:51:07.006Z,40.10
2019-03-27T14:53:37.952Z,39.63
2019-03-27T14:56:09.177Z,39.33
2019-03-27T14:58:39.979Z,35.07
2019-03-27T15:01:10.393Z,36.10
2019-03-27T15:03:41.547Z,38.50
2019-03-27T15:06:11.953Z,40.03
2019-03-27T15:08:42.399Z,40.13
2019-03-27T15:11:12.820Z,43.50
2019-03-27T15:13:43.449Z,45.10
2019-03-27T15:16:13.931Z,46.53
2019-03-27T15:18:44.547Z,51.07
2019-03-27T15:21:14.964Z,64.80
2019-03-27T15:23:45.461Z,68.47
2019-03-27T15:26:16.624Z,56.47
2019-03-27T15:28:50.514Z,71.05
2019-03-27T15:31:20.866Z,58.50
2019-03-27T15:33:51.524Z,51.53
2019-03-27T15:36:21.939Z,46.80
2019-03-27T15:38:52.453Z,52.43
2019-03-27T15:41:22.857Z,80.80
2019-03-27T15:43:56.987Z,60.80
2019-03-27T15:46:29.379Z,54.80
2019-03-27T15:49:01.553Z,47.37
2019-03-27T15:51:36.618Z,48.67
2019-03-27T15:54:07.860Z,28.80
2019-03-27T15:56:38.719Z,28.40
2019-03-27T15:59:09.605Z,23.87
2019-03-27T16:01:40.198Z,22.40
2019-03-27T16:04:12.957Z,20.80
2019-03-27T16:06:43.316Z,18.67
2019-03-27T16:09:14.820Z,14.70
2019-03-27T16:11:45.218Z,14.50
2019-03-27T16:14:15.672Z,11.93
2019-03-27T16:17:01.337Z,18.50
2019-03-27T16:19:18.242Z,17.03
2019-03-27T16:21:48.694Z,15.50
2019-03-27T16:24:20.770Z,14.63
2019-03-27T16:27:03.771Z,28.97
2019-03-27T16:29:23.327Z,16.70
2019-03-27T16:31:53.743Z,15.03
2019-03-27T16:34:25.388Z,17.60
2019-03-27T16:36:55.906Z,15.80
2019-03-27T16:39:26.414Z,14.27
2019-03-27T16:41:56.856Z,15.43
2019-03-27T16:44:27.413Z,20.70
2019-03-27T16:46:57.819Z,9.27
2019-03-27T16:49:28.304Z,13.63
2019-03-27T16:51:58.706Z,11.47
2019-03-27T16:54:29.176Z,11.03
2019-03-27T16:56:59.575Z,13.67
2019-03-27T16:59:30.060Z,11.57
2019-03-27T17:02:04.863Z,22.70
2019-03-27T17:04:35.336Z,14.23
2019-03-27T17:07:05.774Z,20.53
2019-03-27T17:09:36.239Z,22.83
2019-03-27T17:12:06.650Z,24.50
2019-03-27T17:14:37.218Z,29.83
2019-03-27T17:17:07.609Z,25.87
2019-03-27T17:19:38.097Z,26.80
2019-03-27T17:22:19.266Z,31.60
2019-03-27T17:24:43.222Z,40.30
2019-03-27T17:27:14.248Z,40.40
2019-03-27T17:29:44.728Z,41.80
2019-03-27T17:32:15.147Z,40.20
2019-03-27T17:34:47.604Z,38.73
2019-03-27T17:37:17.769Z,25.23
2019-03-27T17:39:48.230Z,24.60
2019-03-27T17:42:18.630Z,16.67
2019-03-27T17:44:51.976Z,14.07
2019-03-27T17:47:21.525Z,14.33
2019-03-27T17:49:52.054Z,13.57
2019-03-27T17:52:22.445Z,14.33
2019-03-27T17:54:52.972Z,13.57
2019-03-27T17:57:23.367Z,14.40
2019-03-27T17:59:53.812Z,15.23
2019-03-27T18:02:24.208Z,12.30
2019-03-27T18:04:54.682Z,16.10
2019-03-27T18:07:25.047Z,16.10
2019-03-27T18:09:55.505Z,38.13
2019-03-27T18:12:25.904Z,14.43
2019-03-27T18:14:56.388Z,20.30
2019-03-27T18:17:26.810Z,14.57
2019-03-27T18:19:57.300Z,18.27
2019-03-27T18:22:27.617Z,19.53
2019-03-27T18:24:58.051Z,23.93
2019-03-27T18:27:28.460Z,27.80
2019-03-27T18:29:58.831Z,25.63
2019-03-27T18:32:29.225Z,31.87
2019-03-27T18:34:59.672Z,37.07
2019-03-27T18:37:30.105Z,34.37
2019-03-27T18:40:00.534Z,34.27
2019-03-27T18:42:30.991Z,39.03
2019-03-27T18:45:01.532Z,46.00
2019-03-27T18:47:31.964Z,42.43
2019-03-27T18:50:02.468Z,39.70
2019-03-27T18:52:32.912Z,37.47
2019-03-27T18:55:03.748Z,39.10
2019-03-27T18:57:34.148Z,33.83
2019-03-27T19:00:09.187Z,29.13
2019-03-27T19:02:39.608Z,30.03
2019-03-27T19:05:10.157Z,25.73
2019-03-27T19:07:40.563Z,26.30
2019-03-27T19:10:11.110Z,19.33
2019-03-27T19:12:41.555Z,20.43
2019-03-27T19:15:12.009Z,20.20
2019-03-27T19:17:42.439Z,18.80
2019-03-27T19:20:13.103Z,19.17
2019-03-27T19:22:43.555Z,23.27
2019-03-27T19:25:14.007Z,16.80
2019-03-27T19:27:44.429Z,21.13
2019-03-27T19:30:15.301Z,17.13
2019-03-27T19:32:45.677Z,18.87
2019-03-27T19:35:16.128Z,17.83
2019-03-27T19:37:46.579Z,17.37
2019-03-27T19:40:17.140Z,20.37
2019-03-27T19:42:47.531Z,19.67
2019-03-27T19:45:18.086Z,20.50
2019-03-27T19:47:48.485Z,20.63
2019-03-27T19:50:18.949Z,31.00
2019-03-27T19:52:49.271Z,30.73
2019-03-27T19:55:19.655Z,23.40
2019-03-27T19:57:50.039Z,22.57
2019-03-27T20:00:21.071Z,22.97
2019-03-27T20:02:51.487Z,21.20
2019-03-27T20:05:21.923Z,23.57
2019-03-27T20:07:52.328Z,25.00
2019-03-27T20:10:25.178Z,21.97
2019-03-27T20:12:55.600Z,25.83
2019-03-27T20:15:26.083Z,23.37
2019-03-27T20:17:56.513Z,23.87
2019-03-27T20:20:26.928Z,26.50
2019-03-27T20:22:57.316Z,26.00
2019-03-27T20:25:27.790Z,23.57
2019-03-27T20:27:58.488Z,29.23
2019-03-27T20:30:28.947Z,24.13
2019-03-27T20:32:59.354Z,26.53
2019-03-27T20:35:29.798Z,24.37
2019-03-27T20:38:00.284Z,23.50
2019-03-27T20:40:31.083Z,23.53
2019-03-27T20:43:01.462Z,23.90
2019-03-27T20:45:31.989Z,24.07
2019-03-27T20:48:02.391Z,21.27
2019-03-27T20:50:32.843Z,21.53
2019-03-27T20:53:03.277Z,21.70
2019-03-27T20:55:33.714Z,22.43
2019-03-27T20:58:04.125Z,24.97
2019-03-27T21:00:34.582Z,24.80
2019-03-27T21:03:04.974Z,27.03
2019-03-27T21:05:35.607Z,22.83
2019-03-27T21:08:06.080Z,32.50
2019-03-27T21:10:36.563Z,29.17
2019-03-27T21:13:07.011Z,24.70
2019-03-27T21:15:38.738Z,23.10
2019-03-27T21:18:09.604Z,23.70
2019-03-27T21:20:40.056Z,29.90
2019-03-27T21:23:10.503Z,23.03
2019-03-27T21:25:40.987Z,21.90
2019-03-27T21:28:11.403Z,21.13
2019-03-27T21:30:41.878Z,20.67
2019-03-27T21:33:12.288Z,21.80
2019-03-27T21:35:42.767Z,22.30
2019-03-27T21:38:13.181Z,21.57
2019-03-27T21:40:43.646Z,20.67
2019-03-27T21:43:14.048Z,19.37
2019-03-27T21:45:44.594Z,19.63
2019-03-27T21:48:14.988Z,20.47
2019-03-27T21:50:45.439Z,22.37
2019-03-27T21:53:15.839Z,20.43
2019-03-27T21:55:46.287Z,19.40
2019-03-27T21:58:16.595Z,20.80
2019-03-27T22:00:47.240Z,18.20
2019-03-27T22:03:17.662Z,19.30
2019-03-27T22:05:48.050Z,18.23
2019-03-27T22:08:18.474Z,17.53
2019-03-27T22:10:48.911Z,19.87
2019-03-27T22:13:19.334Z,18.93
2019-03-27T22:15:49.748Z,18.43
2019-03-27T22:18:20.165Z,19.57
2019-03-27T22:20:50.599Z,18.33
2019-03-27T22:23:20.990Z,18.17
2019-03-27T22:25:51.442Z,22.73
2019-03-27T22:28:21.833Z,24.97
2019-03-27T22:30:52.286Z,22.67
2019-03-27T22:33:22.689Z,21.27
2019-03-27T22:35:53.120Z,21.23
2019-03-27T22:38:23.504Z,21.33
2019-03-27T22:40:53.942Z,22.97
2019-03-27T22:43:24.331Z,24.30
2019-03-27T22:45:54.854Z,21.13
2019-03-27T22:48:25.260Z,20.87
2019-03-27T22:50:55.670Z,22.90
2019-03-27T22:53:26.128Z,24.23
2019-03-27T22:55:56.598Z,30.43
2019-03-27T22:58:26.964Z,27.17
2019-03-27T23:00:57.719Z,27.13
2019-03-27T23:03:28.114Z,27.03
2019-03-27T23:05:58.578Z,31.07
2019-03-27T23:08:28.996Z,37.57
2019-03-27T23:10:59.442Z,27.53
2019-03-27T23:13:29.850Z,27.93
2019-03-27T23:16:00.334Z,33.93
2019-03-27T23:18:30.740Z,27.90
2019-03-27T23:21:01.196Z,25.90
2019-03-27T23:23:31.596Z,24.70
2019-03-27T23:26:03.399Z,27.03
2019-03-27T23:28:34.276Z,31.50
2019-03-27T23:31:04.719Z,28.67
2019-03-27T23:33:35.120Z,35.97
2019-03-27T23:36:05.591Z,26.43
2019-03-27T23:38:36.085Z,25.27
2019-03-27T23:41:06.551Z,22.50
2019-03-27T23:43:36.956Z,23.23
2019-03-27T23:46:07.474Z,24.40
2019-03-27T23:48:37.979Z,23.60
2019-03-27T23:51:08.411Z,27.83
2019-03-27T23:53:38.813Z,26.23
2019-03-27T23:56:16.652Z,27.03
2019-03-27T23:58:41.400Z,23.87
